Time;durP1;ratioP1;P1;durP2;ratioP2;P2;SDS_P1;SDS_P2;PMS_P1;PMS_P2;Temp;Humidity;BMP_temperature;BMP_pressure;BME280_temperature;BME280_humidity;BME280_pressure;Samples;Min_cycle;Max_cycle;Signal;HPM_P1;HPM_P2
2023/10/29 00:00:59;;;;;;;7.70;3.40;;;;;;;15.33;37.78;100212.10;109909;1283;21925;-68
2023/10/29 00:03:25;;;;;;;6.50;3.20;;;;;;;15.24;37.90;100214.70;109915;1284;21958;-68
2023/10/29 00:05:51;;;;;;;5.10;2.50;;;;;;;15.17;38.08;100213.36;109928;1273;21965;-58
2023/10/29 00:08:16;;;;;;;7.00;3.30;;;;;;;15.11;38.10;100216.02;109913;1287;21940;-59
2023/10/29 00:10:42;;;;;;;8.70;3.30;;;;;;;15.00;38.04;100215.16;109911;1287;21948;-68
2023/10/29 00:13:08;;;;;;;7.00;3.10;;;;;;;14.88;38.19;100218.70;109908;1277;21913;-60
2023/10/29 00:15:33;;;;;;;7.20;3.30;;;;;;;14.76;38.38;100220.35;109885;1276;22010;-68
2023/10/29 00:18:00;;;;;;;7.40;3.10;;;;;;;14.64;38.67;100220.88;109896;1284;21957;-67
2023/10/29 00:20:26;;;;;;;6.60;3.20;;;;;;;14.56;38.84;100221.83;109918;1283;21854;-68
2023/10/29 00:22:51;;;;;;;8.90;3.30;;;;;;;14.56;39.00;100219.00;109916;1280;21859;-66
2023/10/29 00:25:18;;;;;;;11.50;3.00;;;;;;;14.59;39.08;100217.83;109916;1286;22001;-58
2023/10/29 00:27:43;;;;;;;11.00;2.70;;;;;;;14.62;39.06;100214.38;109915;1287;21956;-59
2023/10/29 00:30:09;;;;;;;6.90;3.10;;;;;;;14.63;38.98;100214.19;109899;1280;21988;-58
2023/10/29 00:32:35;;;;;;;10.50;2.70;;;;;;;14.57;38.95;100217.56;109899;1281;21936;-59
2023/10/29 00:35:01;;;;;;;7.90;2.50;;;;;;;14.45;39.09;100215.45;109914;1286;22025;-59
2023/10/29 00:37:26;;;;;;;6.90;2.30;;;;;;;14.33;39.34;100212.12;109909;1276;21781;-67
2023/10/29 00:39:53;;;;;;;8.40;3.00;;;;;;;14.29;39.40;100211.88;109930;1281;21961;-58
2023/10/29 00:42:19;;;;;;;7.30;2.30;;;;;;;14.30;39.67;100213.11;109929;1286;21947;-68
2023/10/29 00:44:45;;;;;;;6.30;2.20;;;;;;;14.36;39.86;100213.80;109934;1286;22021;-58
2023/10/29 00:47:10;;;;;;;6.40;2.20;;;;;;;14.43;39.94;100214.98;109936;1286;21942;-59
2023/10/29 00:49:36;;;;;;;6.30;2.40;;;;;;;14.52;39.75;100216.66;109861;1286;21984;-69
2023/10/29 00:52:02;;;;;;;7.50;2.30;;;;;;;14.56;39.60;100215.09;109937;1286;22037;-59
2023/10/29 00:54:28;;;;;;;4.60;2.30;;;;;;;14.54;39.20;100214.28;109943;1283;22053;-68
2023/10/29 00:56:53;;;;;;;5.80;2.10;;;;;;;14.40;39.21;100212.24;109880;1286;21945;-58
2023/10/29 00:59:22;;;;;;;6.00;2.30;;;;;;;14.33;39.35;100211.96;109841;1283;22025;-59
2023/10/29 01:01:48;;;;;;;5.40;2.50;;;;;;;14.29;39.45;100215.23;109930;1286;21937;-69
2023/10/29 01:04:15;;;;;;;6.70;2.60;;;;;;;14.30;39.52;100221.20;109910;1283;22415;-59
2023/10/29 01:06:41;;;;;;;8.50;3.20;;;;;;;14.28;39.55;100223.39;109927;1286;21966;-67
2023/10/29 01:09:07;;;;;;;8.50;2.60;;;;;;;14.19;39.71;100227.16;109938;1286;21969;-67
2023/10/29 01:11:33;;;;;;;6.50;2.20;;;;;;;14.13;39.82;100232.13;109932;1286;22003;-68
2023/10/29 01:13:58;;;;;;;5.50;2.20;;;;;;;14.09;39.85;100235.23;109938;1283;21956;-58
2023/10/29 01:16:24;;;;;;;7.60;2.20;;;;;;;14.08;40.03;100241.08;109939;1276;21955;-68
2023/10/29 01:18:49;;;;;;;6.20;2.50;;;;;;;14.03;40.17;100245.98;109949;1283;22139;-69
2023/10/29 01:21:16;;;;;;;4.00;1.70;;;;;;;13.96;40.26;100247.44;109931;1279;21944;-58
2023/10/29 01:23:41;;;;;;;5.60;2.10;;;;;;;13.93;40.37;100247.14;109939;1281;21940;-58
2023/10/29 01:26:07;;;;;;;6.60;2.70;;;;;;;13.96;40.47;100246.71;109930;1276;21998;-58
2023/10/29 01:28:32;;;;;;;5.20;2.20;;;;;;;13.99;40.49;100244.52;109924;1283;21968;-59
2023/10/29 01:30:59;;;;;;;5.90;1.70;;;;;;;14.00;40.58;100246.60;109941;1285;21965;-68
2023/10/29 01:33:26;;;;;;;7.30;2.10;;;;;;;14.02;40.63;100247.08;109922;1280;21958;-58
2023/10/29 01:35:52;;;;;;;5.90;2.10;;;;;;;14.05;40.67;100249.98;109922;1286;21878;-69
2023/10/29 01:38:17;;;;;;;5.70;1.70;;;;;;;14.08;40.83;100247.60;109940;1283;21974;-58
2023/10/29 01:40:43;;;;;;;5.60;1.70;;;;;;;14.13;40.92;100245.34;109913;1273;21955;-68
2023/10/29 01:43:09;;;;;;;4.60;1.60;;;;;;;14.19;41.11;100247.81;109923;1276;22008;-68
2023/10/29 01:45:36;;;;;;;5.90;2.10;;;;;;;14.28;41.32;100244.92;109931;1280;21937;-59
2023/10/29 01:48:03;;;;;;;3.70;1.60;;;;;;;14.35;41.17;100245.60;109922;1277;21983;-69
2023/10/29 01:50:28;;;;;;;4.60;1.80;;;;;;;14.41;41.20;100246.83;109944;1280;21867;-58
2023/10/29 01:52:54;;;;;;;4.50;1.70;;;;;;;14.44;41.19;100246.73;109975;1286;21926;-68
2023/10/29 01:55:20;;;;;;;4.10;1.50;;;;;;;14.48;41.45;100246.61;109959;1286;21960;-68
2023/10/29 01:57:45;;;;;;;4.80;2.00;;;;;;;14.53;41.51;100248.76;109959;1286;21899;-60
2023/10/29 02:00:12;;;;;;;4.50;1.70;;;;;;;14.61;41.91;100248.35;109951;1279;21940;-58
2023/10/29 02:02:38;;;;;;;4.70;1.70;;;;;;;14.69;41.72;100245.27;109972;1276;21914;-59
2023/10/29 02:05:04;;;;;;;5.60;1.60;;;;;;;14.77;41.57;100244.17;109949;1286;21858;-58
2023/10/29 02:07:30;;;;;;;3.40;1.70;;;;;;;14.78;41.27;100245.39;109957;1286;21929;-59
2023/10/29 02:09:56;;;;;;;3.80;1.80;;;;;;;14.77;41.38;100248.05;109962;1284;21926;-69
2023/10/29 02:12:21;;;;;;;3.90;1.60;;;;;;;14.78;41.44;100247.84;109970;1274;21866;-60
2023/10/29 02:14:47;;;;;;;4.50;1.60;;;;;;;14.80;41.52;100245.12;109946;1286;21997;-68
2023/10/29 02:17:12;;;;;;;5.90;1.80;;;;;;;14.79;41.31;100248.68;109945;1279;21998;-69
2023/10/29 02:19:38;;;;;;;4.30;1.80;;;;;;;14.72;41.05;100251.00;109969;1273;21967;-69
2023/10/29 02:22:04;;;;;;;4.50;1.80;;;;;;;14.64;40.95;100257.26;109951;1282;22186;-68
2023/10/29 02:24:29;;;;;;;8.10;2.10;;;;;;;14.56;40.94;100260.84;109944;1280;21961;-69
2023/10/29 02:26:55;;;;;;;4.30;1.70;;;;;;;14.46;40.82;100261.34;109976;1284;21949;-69
2023/10/29 02:29:21;;;;;;;4.90;1.90;;;;;;;14.35;41.03;100264.29;109952;1286;21935;-68
2023/10/29 02:31:46;;;;;;;6.70;1.80;;;;;;;14.25;41.22;100266.01;109954;1276;21973;-58
2023/10/29 02:34:12;;;;;;;4.70;1.80;;;;;;;14.16;41.39;100266.97;108420;1276;1002538;-67
2023/10/29 02:36:38;;;;;;;3.20;1.40;;;;;;;14.12;41.60;100273.61;109940;1286;22091;-58
2023/10/29 02:39:03;;;;;;;4.90;1.70;;;;;;;14.11;41.62;100275.06;109950;1286;21935;-59
2023/10/29 02:41:30;;;;;;;5.10;1.90;;;;;;;14.09;41.65;100267.36;109957;1283;22027;-68
2023/10/29 02:43:58;;;;;;;5.10;1.60;;;;;;;14.08;41.61;100264.38;109925;1279;21988;-69
2023/10/29 02:46:24;;;;;;;3.90;2.00;;;;;;;14.08;41.79;100266.13;109925;1279;22010;-69
2023/10/29 02:48:50;;;;;;;6.40;2.20;;;;;;;14.09;41.97;100268.05;109935;1283;21949;-69
2023/10/29 02:51:15;;;;;;;6.90;1.80;;;;;;;14.11;42.01;100270.45;109924;1280;22517;-68
2023/10/29 02:53:41;;;;;;;5.50;2.20;;;;;;;14.15;41.94;100277.58;109909;1286;21866;-69
2023/10/29 02:56:07;;;;;;;8.00;2.60;;;;;;;14.16;41.74;100279.49;109924;1276;21966;-58
2023/10/29 02:58:33;;;;;;;5.50;2.50;;;;;;;14.12;41.37;100287.01;109924;1286;21948;-68
2023/10/29 03:01:06;;;;;;;7.30;2.10;;;;;;;14.02;41.29;100297.70;109917;1286;21961;-69
2023/10/29 03:03:33;;;;;;;7.20;2.40;;;;;;;13.95;41.42;100303.54;109917;1286;21967;-58
2023/10/29 03:06:02;;;;;;;5.20;2.40;;;;;;;13.89;41.62;100297.71;109923;1283;21952;-69
2023/10/29 03:08:27;;;;;;;9.20;3.00;;;;;;;13.87;41.78;100291.77;109928;1285;21958;-58
2023/10/29 03:10:53;;;;;;;6.80;2.40;;;;;;;13.88;41.90;100293.52;109162;1283;1001893;-58
2023/10/29 03:13:18;;;;;;;8.10;2.70;;;;;;;13.90;41.90;100293.99;109934;1286;21960;-59
2023/10/29 03:15:44;;;;;;;5.40;2.70;;;;;;;13.90;42.00;100299.11;109901;1286;21965;-58
2023/10/29 03:18:11;;;;;;;4.60;2.10;;;;;;;13.90;41.84;100302.64;109929;1276;21978;-58
2023/10/29 03:20:37;;;;;;;7.80;2.60;;;;;;;13.86;41.65;100296.73;109925;1275;21967;-58
2023/10/29 03:23:03;;;;;;;8.10;2.60;;;;;;;13.82;41.63;100296.84;109944;1283;21958;-69
2023/10/29 03:25:29;;;;;;;7.10;3.00;;;;;;;13.80;41.69;100299.88;109939;1280;22416;-58
2023/10/29 03:27:56;;;;;;;7.20;2.90;;;;;;;13.78;41.49;100305.95;109920;1273;22014;-58
2023/10/29 03:30:21;;;;;;;6.60;3.00;;;;;;;13.72;41.63;100305.92;109935;1281;21954;-68
2023/10/29 03:32:47;;;;;;;8.10;2.80;;;;;;;13.66;41.79;100309.98;109924;1280;21959;-69
2023/10/29 03:35:12;;;;;;;9.00;2.80;;;;;;;13.61;41.95;100316.10;109928;1273;21996;-58
2023/10/29 03:37:38;;;;;;;7.20;3.10;;;;;;;13.58;42.12;100315.64;109910;1286;21981;-69
2023/10/29 03:40:06;;;;;;;7.00;3.80;;;;;;;13.55;42.31;100311.64;109916;1283;21970;-58
2023/10/29 03:42:32;;;;;;;9.70;3.00;;;;;;;13.55;42.33;100312.72;109945;1283;21997;-68
2023/10/29 03:44:58;;;;;;;8.50;3.20;;;;;;;13.56;42.39;100316.05;109920;1285;22012;-58
2023/10/29 03:47:24;;;;;;;13.50;3.50;;;;;;;13.54;42.36;100320.30;109930;1286;21944;-69
2023/10/29 03:49:49;;;;;;;14.70;3.80;;;;;;;13.52;42.49;100319.64;109925;1286;22008;-69
2023/10/29 03:52:15;;;;;;;15.30;3.90;;;;;;;13.51;42.41;100317.73;109929;1279;21960;-58
2023/10/29 03:54:41;;;;;;;16.00;4.50;;;;;;;13.52;42.48;100321.95;109912;1283;21837;-59
2023/10/29 03:57:07;;;;;;;13.00;4.00;;;;;;;13.53;42.58;100322.10;109914;1286;21938;-60
2023/10/29 03:59:34;;;;;;;22.20;4.40;;;;;;;13.52;42.61;100328.98;109908;1281;21938;-58
2023/10/29 04:01:59;;;;;;;18.60;4.40;;;;;;;13.50;42.67;100331.33;109926;1286;21941;-69
2023/10/29 04:04:25;;;;;;;28.20;4.80;;;;;;;13.49;42.65;100335.95;109931;1286;21977;-58
2023/10/29 04:06:50;;;;;;;22.10;4.50;;;;;;;13.49;42.70;100337.36;109163;1286;1002050;-69
2023/10/29 04:09:16;;;;;;;28.20;6.00;;;;;;;13.49;42.67;100338.95;109929;1286;22002;-58
2023/10/29 04:11:43;;;;;;;21.30;4.70;;;;;;;13.47;42.67;100340.41;109909;1281;21960;-71
2023/10/29 04:14:09;;;;;;;14.70;4.60;;;;;;;13.43;42.68;100342.61;109813;1281;22011;-69
2023/10/29 04:16:34;;;;;;;15.80;4.70;;;;;;;13.41;42.67;100349.89;109821;1276;21872;-69
2023/10/29 04:19:00;;;;;;;24.00;6.20;;;;;;;13.41;42.67;100352.00;109867;1283;21939;-59
2023/10/29 04:21:26;;;;;;;31.70;6.00;;;;;;;13.35;42.62;100353.70;109881;1287;21945;-69
2023/10/29 04:23:52;;;;;;;14.30;4.50;;;;;;;13.25;42.84;100358.16;109924;1280;21891;-58
2023/10/29 04:26:18;;;;;;;13.00;4.30;;;;;;;13.18;43.03;100368.91;110001;1287;21885;-60
2023/10/29 04:28:43;;;;;;;14.00;4.50;;;;;;;13.17;43.22;100370.16;110000;1287;21895;-58
2023/10/29 04:31:09;;;;;;;12.70;3.90;;;;;;;13.21;43.25;100369.89;109977;1281;21955;-58
2023/10/29 04:33:34;;;;;;;13.20;3.80;;;;;;;13.32;43.36;100367.87;109928;1283;21944;-59
2023/10/29 04:36:00;;;;;;;19.40;4.20;;;;;;;13.45;43.29;100369.71;109931;1275;21868;-72
2023/10/29 04:38:25;;;;;;;11.90;3.80;;;;;;;13.54;43.23;100372.33;109953;1286;21948;-58
2023/10/29 04:40:51;;;;;;;18.30;5.00;;;;;;;13.61;43.16;100377.27;109923;1276;21935;-58
2023/10/29 04:43:17;;;;;;;17.90;5.00;;;;;;;13.68;43.09;100382.19;109950;1277;21932;-73
2023/10/29 04:45:43;;;;;;;23.70;5.60;;;;;;;13.74;42.99;100389.82;109954;1279;21937;-58
2023/10/29 04:48:08;;;;;;;22.10;5.90;;;;;;;13.78;43.16;100388.48;109971;1286;21983;-71
2023/10/29 04:50:34;;;;;;;16.80;4.30;;;;;;;13.82;43.14;100392.80;109959;1279;21981;-58
2023/10/29 04:53:02;;;;;;;16.00;4.40;;;;;;;13.87;43.01;100392.47;109950;1279;22329;-70
2023/10/29 04:55:29;;;;;;;24.90;6.10;;;;;;;13.95;42.97;100397.39;109921;1283;21951;-58
2023/10/29 04:57:56;;;;;;;18.00;4.40;;;;;;;14.03;42.96;100396.48;109966;1280;22417;-72
2023/10/29 05:00:22;;;;;;;19.20;4.70;;;;;;;14.11;42.87;100395.73;109965;1278;21931;-71
2023/10/29 05:02:47;;;;;;;20.50;5.40;;;;;;;14.20;42.82;100395.68;109940;1284;22015;-58
2023/10/29 05:05:13;;;;;;;33.40;12.30;;;;;;;14.26;42.84;100399.20;109956;1273;21926;-58
2023/10/29 05:07:40;;;;;;;19.80;8.40;;;;;;;14.33;42.75;100399.73;109958;1278;21868;-71
2023/10/29 05:10:07;;;;;;;34.40;12.50;;;;;;;14.41;42.74;100401.27;109948;1283;22384;-58
2023/10/29 05:12:32;;;;;;;35.30;14.10;;;;;;;14.47;42.77;100400.96;109964;1275;21982;-59
2023/10/29 05:14:58;;;;;;;55.50;15.20;;;;;;;14.52;42.69;100409.81;109185;1286;1001921;-72
2023/10/29 05:17:23;;;;;;;38.70;12.10;;;;;;;14.55;42.63;100408.83;109962;1279;21962;-71
2023/10/29 05:19:49;;;;;;;86.80;17.50;;;;;;;14.60;42.71;100412.91;109951;1286;21956;-58
2023/10/29 05:22:15;;;;;;;94.00;21.00;;;;;;;14.66;42.80;100416.30;109953;1283;21977;-58
2023/10/29 05:24:41;;;;;;;68.20;19.30;;;;;;;14.74;42.81;100422.28;109950;1279;21974;-58
2023/10/29 05:27:06;;;;;;;60.60;21.00;;;;;;;14.82;42.84;100419.73;109905;1279;21879;-66
2023/10/29 05:29:33;;;;;;;57.20;18.90;;;;;;;14.91;43.06;100422.67;109960;1286;21968;-57
2023/10/29 05:31:59;;;;;;;35.80;13.80;;;;;;;15.01;43.42;100422.20;109946;1276;21969;-58
2023/10/29 05:34:24;;;;;;;20.30;8.50;;;;;;;15.11;43.79;100424.56;109950;1286;21968;-58
2023/10/29 05:36:50;;;;;;;20.50;8.30;;;;;;;15.21;44.24;100423.20;109949;1286;21967;-57
2023/10/29 05:39:16;;;;;;;24.90;10.20;;;;;;;15.32;44.36;100427.09;109967;1277;21999;-58
2023/10/29 05:41:42;;;;;;;13.50;4.30;;;;;;;15.45;44.51;100431.64;109961;1280;21997;-59
2023/10/29 05:44:07;;;;;;;14.40;5.30;;;;;;;15.58;45.04;100433.52;109966;1276;21919;-65
2023/10/29 05:46:33;;;;;;;16.20;6.00;;;;;;;15.73;45.17;100433.22;109945;1283;22001;-57
2023/10/29 05:48:59;;;;;;;10.30;4.40;;;;;;;15.87;45.46;100432.77;109958;1279;21961;-57
2023/10/29 05:51:25;;;;;;;6.70;3.20;;;;;;;16.02;45.70;100437.23;109947;1273;22014;-72
2023/10/29 05:53:50;;;;;;;13.80;5.30;;;;;;;16.17;45.95;100438.66;109919;1285;21877;-58
2023/10/29 05:56:18;;;;;;;14.40;3.70;;;;;;;16.33;46.25;100441.30;109927;1281;21938;-58
2023/10/29 05:58:44;;;;;;;5.90;2.40;;;;;;;16.52;46.54;100437.63;109914;1286;22024;-71
2023/10/29 06:01:10;;;;;;;6.60;1.70;;;;;;;16.72;46.69;100436.91;109937;1282;21945;-58
2023/10/29 06:03:36;;;;;;;4.60;1.60;;;;;;;16.94;46.97;100438.77;109927;1279;21870;-58
2023/10/29 06:06:02;;;;;;;6.90;1.80;;;;;;;17.18;47.07;100439.83;109928;1283;21960;-58
2023/10/29 06:08:28;;;;;;;4.70;1.90;;;;;;;17.42;47.26;100444.75;109921;1286;22000;-70
2023/10/29 06:10:54;;;;;;;5.40;1.50;;;;;;;17.65;47.26;100443.27;109913;1280;22405;-68
2023/10/29 06:13:20;;;;;;;7.30;1.80;;;;;;;17.87;47.11;100447.88;109911;1287;22013;-58
2023/10/29 06:15:45;;;;;;;3.30;1.30;;;;;;;18.09;47.10;100447.17;109890;1287;21952;-72
2023/10/29 06:18:11;;;;;;;6.50;1.60;;;;;;;18.31;47.40;100449.10;109902;1279;21947;-72
2023/10/29 06:20:41;;;;;;;3.40;1.40;;;;;;;18.53;47.57;100448.30;109918;1280;21874;-59
2023/10/29 06:23:07;;;;;;;5.20;1.60;;;;;;;18.76;47.03;100449.42;109925;1286;21946;-72
2023/10/29 06:25:33;;;;;;;5.90;2.40;;;;;;;18.96;46.84;100451.05;109936;1286;22531;-73
2023/10/29 06:27:59;;;;;;;5.70;1.60;;;;;;;19.15;47.05;100448.91;109965;1286;21983;-73
2023/10/29 06:30:24;;;;;;;2.60;1.10;;;;;;;19.35;46.72;100444.77;109959;1283;22138;-59
2023/10/29 06:32:50;;;;;;;3.10;1.30;;;;;;;19.55;46.52;100442.23;109894;1286;22014;-72
2023/10/29 06:35:15;;;;;;;5.60;1.60;;;;;;;19.73;46.26;100444.37;109937;1276;21968;-59
2023/10/29 06:37:41;;;;;;;5.10;1.50;;;;;;;19.91;46.20;100448.83;109993;1282;21921;-72
2023/10/29 06:40:08;;;;;;;2.90;1.20;;;;;;;20.09;46.07;100449.75;109852;1286;22000;-58
2023/10/29 06:42:35;;;;;;;2.50;1.20;;;;;;;20.29;45.87;100451.05;109800;1287;21932;-71
2023/10/29 06:45:02;;;;;;;2.90;1.20;;;;;;;20.47;45.39;100451.69;109932;1283;22026;-59
2023/10/29 06:47:27;;;;;;;3.50;1.20;;;;;;;20.64;45.20;100452.03;109935;1279;21971;-59
2023/10/29 06:49:54;;;;;;;3.30;1.40;;;;;;;20.82;45.00;100457.90;109945;1281;21882;-59
2023/10/29 06:52:21;;;;;;;5.60;1.30;;;;;;;20.99;44.70;100462.85;109196;1286;1002255;-59
2023/10/29 06:54:47;;;;;;;5.60;1.30;;;;;;;21.15;44.40;100462.16;109954;1279;22008;-59
2023/10/29 06:57:12;;;;;;;5.80;1.40;;;;;;;21.30;44.10;100467.58;109950;1279;22005;-59
2023/10/29 06:59:39;;;;;;;3.70;1.40;;;;;;;21.45;43.64;100469.10;109947;1280;22309;-59
2023/10/29 07:02:06;;;;;;;2.50;1.00;;;;;;;21.57;43.39;100468.44;109951;1275;22009;-60
2023/10/29 07:04:31;;;;;;;3.70;1.50;;;;;;;21.70;43.16;100472.16;109934;1286;22011;-59
2023/10/29 07:06:57;;;;;;;3.00;1.30;;;;;;;21.84;42.76;100472.96;109946;1284;22019;-60
2023/10/29 07:09:23;;;;;;;5.50;1.60;;;;;;;21.98;42.52;100471.65;109934;1286;22024;-59
2023/10/29 07:11:49;;;;;;;3.90;1.40;;;;;;;22.11;42.54;100478.59;109939;1279;22018;-59
2023/10/29 07:14:15;;;;;;;3.10;1.20;;;;;;;22.23;42.27;100483.22;109935;1279;22014;-59
2023/10/29 07:16:44;;;;;;;5.20;1.30;;;;;;;22.35;42.28;100487.34;109964;1286;22044;-60
2023/10/29 07:19:11;;;;;;;8.60;1.60;;;;;;;22.46;42.23;100496.55;109950;1286;22008;-59
2023/10/29 07:21:37;;;;;;;4.80;1.30;;;;;;;22.58;42.23;100498.31;109184;1273;1002905;-59
2023/10/29 07:24:05;;;;;;;7.10;1.70;;;;;;;22.72;42.17;100500.55;109965;1275;21937;-59
2023/10/29 07:26:33;;;;;;;3.40;1.20;;;;;;;22.85;42.27;100499.91;109938;1286;22007;-59
2023/10/29 07:29:00;;;;;;;2.20;1.10;;;;;;;22.98;42.31;100502.81;109924;1276;22315;-60
2023/10/29 07:31:26;;;;;;;3.30;0.80;;;;;;;23.15;42.19;100507.20;109938;1286;21951;-71
2023/10/29 07:33:52;;;;;;;2.80;1.10;;;;;;;23.31;42.25;100508.72;109931;1283;21942;-71
2023/10/29 07:36:19;;;;;;;2.20;1.10;;;;;;;23.45;42.17;100509.94;109932;1283;21931;-59
2023/10/29 07:38:45;;;;;;;3.40;1.30;;;;;;;23.56;42.06;100507.66;109917;1283;22090;-71
2023/10/29 07:41:10;;;;;;;5.10;1.00;;;;;;;23.69;41.79;100501.58;109937;1285;21889;-60
2023/10/29 07:43:36;;;;;;;2.70;0.90;;;;;;;23.83;41.70;100506.63;109933;1280;21962;-60
2023/10/29 07:46:05;;;;;;;2.50;1.00;;;;;;;23.92;41.64;100505.10;109933;1286;22422;-59
2023/10/29 07:48:30;;;;;;;3.00;0.70;;;;;;;24.04;41.69;100500.42;109900;1286;22420;-60
2023/10/29 07:50:56;;;;;;;2.80;0.70;;;;;;;24.18;41.22;100500.73;109923;1286;21961;-70
2023/10/29 07:53:22;;;;;;;3.50;0.80;;;;;;;24.32;40.69;100501.77;109928;1286;21955;-61
2023/10/29 07:55:48;;;;;;;1.30;0.50;;;;;;;24.44;40.78;100498.29;109942;1277;22098;-59
2023/10/29 07:58:14;;;;;;;2.50;0.80;;;;;;;24.57;40.31;100495.02;109895;1286;21966;-60
2023/10/29 08:00:39;;;;;;;1.60;0.50;;;;;;;24.69;40.08;100489.96;109918;1279;21968;-69
2023/10/29 08:03:05;;;;;;;3.60;0.80;;;;;;;24.76;39.73;100491.93;109919;1279;21964;-60
2023/10/29 08:05:30;;;;;;;1.40;0.50;;;;;;;24.83;39.40;100493.09;109939;1283;21955;-60
2023/10/29 08:07:56;;;;;;;4.00;1.00;;;;;;;24.87;39.27;100495.36;109939;1276;22029;-69
2023/10/29 08:10:23;;;;;;;4.80;0.60;;;;;;;24.92;39.23;100497.68;109848;1279;22413;-60
2023/10/29 08:12:49;;;;;;;2.00;0.60;;;;;;;24.96;39.04;100496.83;109898;1287;21963;-60
2023/10/29 08:15:15;;;;;;;2.70;0.80;;;;;;;25.05;38.99;100497.32;109918;1279;21931;-69
2023/10/29 08:17:40;;;;;;;1.30;0.60;;;;;;;25.12;38.73;100497.33;109906;1287;22477;-68
2023/10/29 08:20:07;;;;;;;2.60;1.00;;;;;;;25.14;38.76;100494.65;109884;1283;21930;-69
2023/10/29 08:22:32;;;;;;;2.20;0.60;;;;;;;25.17;38.70;100492.67;109913;1279;21931;-60
2023/10/29 08:24:59;;;;;;;2.50;0.70;;;;;;;25.22;38.77;100487.78;109920;1287;21928;-60
2023/10/29 08:27:25;;;;;;;2.60;0.70;;;;;;;25.33;38.60;100495.43;109954;1285;21963;-67
2023/10/29 08:29:52;;;;;;;2.90;0.80;;;;;;;25.45;38.40;100495.70;109979;1273;22011;-69
2023/10/29 08:32:18;;;;;;;5.50;1.20;;;;;;;25.54;38.26;100497.92;109954;1275;22243;-59
2023/10/29 08:34:43;;;;;;;3.80;1.10;;;;;;;25.67;38.16;100500.57;109939;1283;22006;-69
2023/10/29 08:37:10;;;;;;;2.40;0.90;;;;;;;25.74;37.56;100503.15;109918;1286;22019;-68
2023/10/29 08:39:37;;;;;;;7.30;1.10;;;;;;;25.77;37.51;100506.88;109931;1276;21983;-69
2023/10/29 08:42:03;;;;;;;3.10;0.80;;;;;;;25.79;37.17;100515.32;109920;1286;21953;-68
2023/10/29 08:44:29;;;;;;;3.50;0.90;;;;;;;25.85;37.03;100516.00;109930;1277;21991;-68
2023/10/29 08:46:54;;;;;;;2.80;0.60;;;;;;;25.92;36.25;100518.13;109913;1283;21962;-68
2023/10/29 08:49:20;;;;;;;2.80;1.00;;;;;;;25.99;36.01;100519.99;109923;1284;22005;-61
2023/10/29 08:51:45;;;;;;;2.60;1.00;;;;;;;26.08;35.95;100518.23;109930;1279;21957;-69
2023/10/29 08:54:11;;;;;;;3.60;0.90;;;;;;;26.23;36.09;100515.80;109950;1273;21967;-68
2023/10/29 08:56:37;;;;;;;3.20;0.70;;;;;;;26.43;35.69;100514.71;109916;1279;21949;-69
2023/10/29 08:59:04;;;;;;;3.50;0.80;;;;;;;26.55;34.87;100512.70;109942;1285;21940;-67
2023/10/29 09:01:30;;;;;;;2.50;1.00;;;;;;;26.66;34.86;100511.25;109937;1279;21950;-67
2023/10/29 09:03:56;;;;;;;3.10;0.80;;;;;;;26.77;34.26;100511.00;109925;1286;21948;-68
2023/10/29 09:06:22;;;;;;;2.50;1.00;;;;;;;26.83;33.99;100514.51;109921;1286;21869;-61
2023/10/29 09:08:47;;;;;;;4.60;1.20;;;;;;;26.91;33.62;100516.43;109916;1279;22004;-68
2023/10/29 09:11:14;;;;;;;2.00;0.80;;;;;;;26.98;33.63;100517.50;109919;1286;22004;-69
2023/10/29 09:13:40;;;;;;;4.30;1.00;;;;;;;27.04;33.42;100514.45;109931;1286;22032;-60
2023/10/29 09:16:06;;;;;;;2.50;1.10;;;;;;;27.07;33.36;100512.67;109927;1276;22134;-60
2023/10/29 09:18:31;;;;;;;2.90;0.90;;;;;;;27.09;33.26;100511.17;109942;1276;21947;-68
2023/10/29 09:20:57;;;;;;;6.00;3.40;;;;;;;27.16;32.97;100508.35;109933;1281;21983;-61
2023/10/29 09:23:23;;;;;;;11.60;4.30;;;;;;;27.23;32.81;100504.55;109878;1283;21961;-68
2023/10/29 09:25:49;;;;;;;5.40;1.50;;;;;;;27.25;32.64;100504.55;109941;1276;21935;-68
2023/10/29 09:28:16;;;;;;;3.70;1.20;;;;;;;27.21;32.70;100507.95;109961;1279;22009;-60
2023/10/29 09:30:42;;;;;;;5.00;1.10;;;;;;;27.22;32.68;100511.26;109964;1286;22004;-60
2023/10/29 09:33:12;;;;;;;73.10;6.10;;;;;;;27.25;32.69;100510.82;109906;1279;21909;-67
2023/10/29 09:35:39;;;;;;;5.90;1.20;;;;;;;27.34;32.74;100515.67;109990;1279;21838;-68
2023/10/29 09:38:05;;;;;;;12.00;3.10;;;;;;;27.39;32.15;100516.54;110056;1286;22385;-60
2023/10/29 09:40:30;;;;;;;4.90;1.10;;;;;;;27.37;32.20;100519.39;110073;1286;21926;-67
2023/10/29 09:42:56;;;;;;;9.50;1.60;;;;;;;27.37;32.34;100517.12;110006;1286;21942;-68
2023/10/29 09:45:26;;;;;;;2.70;1.20;;;;;;;27.43;32.21;100522.34;109933;1283;22417;-60
2023/10/29 09:47:52;;;;;;;4.30;1.20;;;;;;;27.54;31.82;100517.20;109915;1280;22423;-60
2023/10/29 09:50:19;;;;;;;3.80;1.10;;;;;;;27.59;31.73;100515.71;109924;1283;21984;-68
2023/10/29 09:52:55;;;;;;;3.50;1.30;;;;;;;27.64;31.85;100513.63;109926;1276;21932;-68
2023/10/29 09:55:21;;;;;;;5.40;1.10;;;;;;;27.85;31.71;100507.21;109911;1286;21953;-61
2023/10/29 09:57:47;;;;;;;2.50;1.00;;;;;;;28.03;31.51;100508.83;109936;1283;21958;-67
2023/10/29 10:00:16;;;;;;;5.30;1.20;;;;;;;28.04;31.25;100514.13;109937;1286;21858;-60
2023/10/29 10:03:08;;;;;;;4.00;1.40;;;;;;;28.06;30.89;100519.76;109924;1283;21966;-68
2023/10/29 10:05:34;;;;;;;4.50;1.20;;;;;;;28.07;31.16;100521.83;109901;1286;21966;-68
2023/10/29 10:08:00;;;;;;;6.90;1.80;;;;;;;28.13;30.99;100525.83;109853;1282;21940;-67
2023/10/29 10:10:36;;;;;;;2.80;1.00;;;;;;;28.24;30.47;100533.41;109926;1286;21997;-68
2023/10/29 10:13:02;;;;;;;3.40;1.10;;;;;;;28.30;30.48;100530.60;109934;1285;21945;-68
2023/10/29 10:15:28;;;;;;;5.20;1.40;;;;;;;28.36;30.53;100521.98;109923;1276;22000;-68
2023/10/29 10:17:58;;;;;;;1.90;0.90;;;;;;;28.49;30.48;100517.38;109926;1282;22042;-60
2023/10/29 10:20:24;;;;;;;4.20;1.00;;;;;;;28.57;30.20;100520.39;109857;1279;21985;-68
2023/10/29 10:22:56;;;;;;;2.60;0.90;;;;;;;28.58;30.26;100518.48;109930;1286;21966;-69
2023/10/29 10:25:23;;;;;;;2.10;0.90;;;;;;;28.59;30.46;100519.60;109914;1283;22003;-68
2023/10/29 10:27:50;;;;;;;2.90;1.00;;;;;;;28.69;30.08;100524.54;109845;1286;22196;-61
2023/10/29 10:30:36;;;;;;;5.30;1.50;;;;;;;28.71;29.96;100523.64;109879;1286;21926;-61
2023/10/29 10:33:20;;;;;;;3.90;1.00;;;;;;;28.69;29.99;100527.66;109933;1276;21953;-61
2023/10/29 10:35:51;;;;;;;1.90;1.00;;;;;;;28.69;29.83;100528.73;109949;1282;21947;-66
2023/10/29 10:38:19;;;;;;;4.50;1.40;;;;;;;28.62;29.85;100524.59;109917;1286;22398;-58
2023/10/29 10:40:46;;;;;;;5.40;1.30;;;;;;;28.67;29.76;100521.31;109918;1283;22091;-66
2023/10/29 10:43:17;;;;;;;3.80;1.10;;;;;;;28.76;30.04;100521.06;109948;1276;21951;-58
2023/10/29 10:45:43;;;;;;;3.00;0.70;;;;;;;28.89;29.74;100517.84;109939;1286;22030;-59
2023/10/29 10:48:08;;;;;;;3.40;1.20;;;;;;;29.01;29.98;100515.87;109845;1282;21962;-65
2023/10/29 10:50:35;;;;;;;6.10;1.40;;;;;;;29.16;29.62;100519.71;109847;1276;22024;-59
2023/10/29 10:53:00;;;;;;;4.30;1.10;;;;;;;29.16;29.41;100518.84;109925;1286;21933;-58
2023/10/29 10:55:26;;;;;;;2.70;1.10;;;;;;;29.19;29.44;100517.74;109865;1286;21991;-66
2023/10/29 10:57:52;;;;;;;4.20;0.90;;;;;;;29.28;29.34;100519.63;109844;1281;21940;-65
2023/10/29 11:00:18;;;;;;;3.90;1.00;;;;;;;29.28;29.11;100521.05;109944;1286;21919;-59
2023/10/29 11:02:45;;;;;;;4.20;1.30;;;;;;;29.24;29.44;100521.92;109967;1286;21944;-65
2023/10/29 11:05:15;;;;;;;5.30;1.20;;;;;;;29.27;29.21;100520.05;109966;1279;21942;-65
2023/10/29 11:07:41;;;;;;;3.40;1.10;;;;;;;29.28;29.11;100520.92;109945;1286;21931;-65
2023/10/29 11:10:10;;;;;;;2.10;1.20;;;;;;;29.29;29.02;100518.95;109921;1273;21962;-66